Wetterdaten: Woche 31.10.16 - 06.11.16 (KW44)
Datum Zeit Temp. Aussen Temp. o. S. +5cm Feuchte Auss BlattFeu 1 Luftdruck Regen Sonnenschein Regendauer Solar Windben Empfang
31.10.2016 00:00 6,0 C 5,4 C 3,9 C 93 % 15 lf 1029,2 hPa 0,0 l/m 0,00 h 0,00 h 0 W/m 0,1 km/h (0 Bft) 98,17 %
31.10.2016 01:00 6,1 C 5,9 C 3,9 C 95 % 15 lf 1029,0 hPa 0,0 l/m 0,00 h 0,00 h 0 W/m 4,1 km/h (1 Bft) 95,35 %
31.10.2016 02:00 6,0 C 5,2 C 3,5 C 95 % 15 lf 1028,6 hPa 0,0 l/m 0,00 h 0,00 h 0 W/m 1,0 km/h (0 Bft) 96,39 %
31.10.2016 03:00 5,7 C 5,6 C 3,7 C 96 % 15 lf 1028,4 hPa 0,0 l/m 0,00 h 0,00 h 0 W/m 4,6 km/h (1 Bft) 95,10 %
31.10.2016 04:00 6,4 C 5,9 C 4,0 C 97 % 15 lf 1028,3 hPa 0,0 l/m 0,00 h 0,00 h 0 W/m 4,8 km/h (1 Bft) 97,44 %
31.10.2016 05:00 6,1 C 5,6 C 3,6 C 97 % 15 lf 1028,2 hPa 0,0 l/m 0,00 h 0,00 h 0 W/m 5,0 km/h (1 Bft) 96,96 %
31.10.2016 06:00 5,9 C 5,5 C 3,5 C 97 % 15 lf 1028,1 hPa 0,0 l/m 0,00 h 0,00 h 0 W/m 5,5 km/h (1 Bft) 95,93 %
31.10.2016 07:00 5,9 C 5,8 C 4,0 C 97 % 15 lf 1028,4 hPa 0,0 l/m 0,33 h 0,00 h 18 W/m 7,8 km/h (2 Bft) 94,96 %
31.10.2016 08:00 6,6 C 6,9 C 5,2 C 98 % 15 lf 1028,5 hPa 0,0 l/m 1,00 h 0,00 h 84 W/m 10,7 km/h (2 Bft) 97,44 %
31.10.2016 09:00 8,1 C 12,0 C 6,5 C 98 % 15 lf 1028,2 hPa 0,0 l/m 1,00 h 0,00 h 215 W/m 16,9 km/h (3 Bft) 95,14 %
31.10.2016 10:00 10,5 C 16,6 C 8,0 C 94 % 5 lf 1028,1 hPa 0,0 l/m 1,00 h 0,00 h 314 W/m 17,3 km/h (3 Bft) 95,73 %
31.10.2016 11:00 12,7 C 17,3 C 10,7 C 84 % 0 lf 1027,9 hPa 0,0 l/m 1,00 h 0,00 h 373 W/m 14,1 km/h (3 Bft) 98,21 %
31.10.2016 12:00 13,7 C 17,6 C 12,0 C 80 % 0 lf 1027,4 hPa 0,0 l/m 0,97 h 0,00 h 405 W/m 12,6 km/h (3 Bft) 94,52 %
31.10.2016 13:00 15,0 C 19,5 C 12,9 C 75 % 0 lf 1027,0 hPa 0,0 l/m 1,00 h 0,00 h 348 W/m 15,3 km/h (3 Bft) 94,44 %
31.10.2016 14:00 15,9 C 21,2 C 13,3 C 71 % 0 lf 1026,7 hPa 0,0 l/m 1,00 h 0,00 h 254 W/m 12,2 km/h (2 Bft) 98,79 %
31.10.2016 15:00 15,8 C 18,2 C 12,4 C 72 % 0 lf 1026,5 hPa 0,0 l/m 0,83 h 0,00 h 127 W/m 8,0 km/h (2 Bft) 94,45 %
31.10.2016 16:00 14,4 C 13,6 C 9,9 C 76 % 0 lf 1026,1 hPa 0,0 l/m 0,00 h 0,00 h 31 W/m 4,5 km/h (1 Bft) 98,29 %
31.10.2016 17:00 12,5 C 10,2 C 7,2 C 81 % 0 lf 1026,0 hPa 0,0 l/m 0,00 h 0,00 h 7 W/m 0,0 km/h (0 Bft) 96,30 %
31.10.2016 18:00 10,4 C 8,7 C 6,1 C 86 % 2 lf 1026,0 hPa 0,0 l/m 0,00 h 0,00 h 5 W/m 0,1 km/h (0 Bft) 94,65 %
31.10.2016 19:00 9,1 C 7,7 C 5,4 C 88 % 7 lf 1025,7 hPa 0,0 l/m 0,00 h 0,00 h 4 W/m 0,1 km/h (0 Bft) 96,45 %
31.10.2016 20:00 8,3 C 7,4 C 5,0 C 90 % 15 lf 1025,6 hPa 0,0 l/m 0,00 h 0,00 h 0 W/m 3,9 km/h (1 Bft) 97,08 %
31.10.2016 21:00 7,9 C 7,4 C 5,1 C 93 % 15 lf 1025,6 hPa 0,0 l/m 0,00 h 0,00 h 0 W/m 4,3 km/h (1 Bft) 96,15 %
31.10.2016 22:00 8,0 C 7,2 C 4,9 C 94 % 15 lf 1025,2 hPa 0,0 l/m 0,00 h 0,00 h 0 W/m 6,1 km/h (2 Bft) 95,58 %
31.10.2016 23:00 7,6 C 7,0 C 4,7 C 95 % 15 lf 1024,7 hPa 0,0 l/m 0,00 h 0,00 h 0 W/m 5,9 km/h (2 Bft) 95,87 %
01.11.2016 00:00 7,3 C 6,8 C 4,5 C 96 % 15 lf 1024,1 hPa 0,0 l/m 0,00 h 0,00 h 0 W/m 6,7 km/h (2 Bft) 90,64 %
01.11.2016 01:00 7,1 C 6,7 C 4,7 C 96 % 15 lf 1023,7 hPa 0,0 l/m 0,00 h 0,00 h 0 W/m 7,5 km/h (2 Bft) 95,73 %
01.11.2016 02:00 7,1 C 7,1 C 5,4 C 97 % 15 lf 1023,1 hPa 0,0 l/m 0,00 h 0,00 h 0 W/m 10,4 km/h (2 Bft) 96,86 %
01.11.2016 03:00 7,1 C 7,2 C 5,6 C 97 % 15 lf 1022,6 hPa 0,0 l/m 0,00 h 0,00 h 0 W/m 9,9 km/h (2 Bft) 95,16 %
01.11.2016 04:00 7,0 C 6,9 C 5,0 C 97 % 15 lf 1022,1 hPa 0,0 l/m 0,00 h 0,00 h 0 W/m 6,7 km/h (2 Bft) 96,87 %
01.11.2016 05:00 6,5 C 6,1 C 4,4 C 97 % 15 lf 1021,8 hPa 0,0 l/m 0,00 h 0,00 h 0 W/m 7,7 km/h (2 Bft) 98,29 %
01.11.2016 06:00 6,2 C 6,0 C 4,1 C 97 % 15 lf 1021,5 hPa 0,0 l/m 0,00 h 0,00 h 0 W/m 5,7 km/h (1 Bft) 94,80 %
01.11.2016 07:00 5,7 C 5,5 C 3,5 C 97 % 15 lf 1021,5 hPa 0,0 l/m 0,00 h 0,03 h 13 W/m 5,3 km/h (1 Bft) 95,30 %
01.11.2016 08:00 5,9 C 6,6 C 4,6 C 98 % 15 lf 1021,2 hPa 0,2 l/m 0,93 h 0,00 h 90 W/m 6,8 km/h (2 Bft) 97,79 %
01.11.2016 09:00 7,4 C 10,6 C 6,9 C 98 % 15 lf 1021,0 hPa 0,0 l/m 1,00 h 0,00 h 183 W/m 6,3 km/h (2 Bft) 95,16 %
01.11.2016 10:00 9,4 C 15,0 C 8,7 C 99 % 6 lf 1020,6 hPa 0,0 l/m 1,00 h 0,00 h 235 W/m 6,0 km/h (2 Bft) 95,45 %
01.11.2016 11:00 11,4 C 17,3 C 11,5 C 98 % 0 lf 1020,2 hPa 0,0 l/m 1,00 h 0,00 h 280 W/m 7,8 km/h (2 Bft) 97,30 %
01.11.2016 12:00 13,0 C 17,3 C 13,0 C 92 % 0 lf 1019,5 hPa 0,0 l/m 0,97 h 0,00 h 281 W/m 8,7 km/h (2 Bft) 95,50 %
01.11.2016 13:00 14,3 C 18,2 C 13,6 C 86 % 0 lf 1018,9 hPa 0,0 l/m 0,93 h 0,00 h 222 W/m 9,9 km/h (2 Bft) 93,95 %
01.11.2016 14:00 14,7 C 18,0 C 13,4 C 84 % 0 lf 1018,5 hPa 0,0 l/m 0,97 h 0,00 h 174 W/m 10,6 km/h (2 Bft) 97,52 %
01.11.2016 15:00 14,4 C 14,9 C 12,8 C 84 % 0 lf 1018,2 hPa 0,0 l/m 0,07 h 0,00 h 67 W/m 11,0 km/h (2 Bft) 96,64 %
01.11.2016 16:00 13,7 C 13,5 C 11,6 C 87 % 0 lf 1017,9 hPa 0,0 l/m 0,00 h 0,00 h 23 W/m 4,9 km/h (1 Bft) 93,87 %
01.11.2016 17:00 13,1 C 12,8 C 10,8 C 88 % 0 lf 1017,8 hPa 0,0 l/m 0,00 h 0,00 h 0 W/m 5,9 km/h (2 Bft) 97,28 %
01.11.2016 18:00 12,7 C 12,3 C 10,6 C 91 % 0 lf 1018,0 hPa 0,0 l/m 0,00 h 0,00 h 0 W/m 7,8 km/h (2 Bft) 97,40 %
01.11.2016 19:00 11,2 C 10,6 C 9,0 C 92 % 14 lf 1018,5 hPa 0,2 l/m 0,00 h 0,43 h 0 W/m 25,2 km/h (4 Bft) 95,93 %
01.11.2016 20:00 9,4 C 9,4 C 7,8 C 94 % 15 lf 1018,9 hPa 0,0 l/m 0,00 h 0,03 h 0 W/m 15,8 km/h (3 Bft) 95,23 %
01.11.2016 21:00 9,2 C 9,4 C 7,8 C 94 % 15 lf 1019,0 hPa 0,0 l/m 0,00 h 0,07 h 0 W/m 9,2 km/h (2 Bft) 96,51 %
01.11.2016 22:00 9,2 C 8,9 C 7,8 C 93 % 15 lf 1019,0 hPa 0,0 l/m 0,00 h 0,00 h 0 W/m 5,7 km/h (1 Bft) 96,94 %
01.11.2016 23:00 9,0 C 8,7 C 7,1 C 94 % 15 lf 1018,9 hPa 0,0 l/m 0,00 h 0,00 h 0 W/m 7,5 km/h (2 Bft) 96,51 %
02.11.2016 00:00 8,4 C 6,9 C 5,2 C 94 % 15 lf 1018,9 hPa 0,0 l/m 0,00 h 0,00 h 0 W/m 7,2 km/h (2 Bft) 95,00 %
02.11.2016 01:00 7,2 C 5,8 C 4,1 C 93 % 15 lf 1018,8 hPa 0,0 l/m 0,00 h 0,00 h 0 W/m 6,3 km/h (2 Bft) 97,08 %
02.11.2016 02:00 6,6 C 6,1 C 4,8 C 94 % 15 lf 1018,7 hPa 0,0 l/m 0,00 h 0,00 h 0 W/m 7,3 km/h (2 Bft) 97,87 %
02.11.2016 03:00 6,8 C 6,4 C 5,2 C 95 % 15 lf 1018,5 hPa 0,0 l/m 0,00 h 0,00 h 3 W/m 8,9 km/h (2 Bft) 95,44 %
02.11.2016 04:00 6,7 C 6,5 C 5,2 C 96 % 15 lf 1018,1 hPa 0,0 l/m 0,00 h 0,03 h 0 W/m 8,8 km/h (2 Bft) 96,94 %
02.11.2016 05:00 6,7 C 6,7 C 5,6 C 96 % 15 lf 1017,8 hPa 0,0 l/m 0,00 h 0,47 h 0 W/m 11,8 km/h (2 Bft) 95,09 %
02.11.2016 06:00 6,8 C 6,7 C 5,6 C 96 % 15 lf 1017,8 hPa 0,0 l/m 0,00 h 0,03 h 4 W/m 10,7 km/h (2 Bft) 95,70 %
02.11.2016 07:00 6,7 C 6,5 C 5,2 C 96 % 15 lf 1017,8 hPa 0,2 l/m 0,00 h 0,20 h 9 W/m 12,4 km/h (3 Bft) 98,22 %
02.11.2016 08:00 6,7 C 7,0 C 5,6 C 96 % 15 lf 1018,0 hPa 0,0 l/m 0,17 h 0,03 h 51 W/m 12,0 km/h (2 Bft) 94,09 %
02.11.2016 09:00 7,4 C 8,5 C 6,6 C 97 % 14 lf 1018,2 hPa 0,0 l/m 0,07 h 0,17 h 100 W/m 12,7 km/h (3 Bft) 96,13 %
02.11.2016 10:00 8,2 C 9,9 C 7,6 C 96 % 1 lf 1018,4 hPa 0,0 l/m 0,00 h 0,07 h 130 W/m 15,4 km/h (3 Bft) 97,82 %
02.11.2016 11:00 9,2 C 13,6 C 8,6 C 92 % 0 lf 1018,3 hPa 0,0 l/m 0,73 h 0,00 h 337 W/m 19,0 km/h (3 Bft) 96,50 %
02.11.2016 12:00 9,9 C 11,6 C 9,2 C 85 % 0 lf 1017,9 hPa 0,0 l/m 0,80 h 0,00 h 241 W/m 18,8 km/h (3 Bft) 94,01 %
02.11.2016 13:00 10,5 C 15,3 C 9,4 C 82 % 5 lf 1017,8 hPa 0,0 l/m 0,93 h 0,13 h 417 W/m 19,0 km/h (3 Bft) 98,44 %
02.11.2016 14:00 10,5 C 12,5 C 8,9 C 80 % 0 lf 1017,7 hPa 0,0 l/m 1,00 h 0,07 h 398 W/m 16,6 km/h (3 Bft) 96,30 %
02.11.2016 15:00 10,3 C 12,8 C 8,3 C 77 % 0 lf 1017,8 hPa 0,0 l/m 1,00 h 0,00 h 411 W/m 17,6 km/h (3 Bft) 94,30 %
02.11.2016 16:00 9,1 C 8,7 C 7,1 C 82 % 0 lf 1017,9 hPa 0,0 l/m 0,80 h 0,03 h 263 W/m 16,2 km/h (3 Bft) 99,22 %
02.11.2016 17:00 8,2 C 7,8 C 6,4 C 88 % 4 lf 1018,2 hPa 0,0 l/m 0,00 h 0,13 h 6 W/m 16,0 km/h (3 Bft) 95,37 %
02.11.2016 18:00 7,6 C 7,1 C 5,2 C 91 % 14 lf 1018,6 hPa 0,2 l/m 0,00 h 0,13 h 0 W/m 16,5 km/h (3 Bft) 97,23 %
02.11.2016 19:00 7,2 C 6,6 C 4,9 C 93 % 15 lf 1018,8 hPa 0,0 l/m 0,00 h 0,10 h 0 W/m 13,6 km/h (3 Bft) 95,66 %
02.11.2016 20:00 6,6 C 6,1 C 4,4 C 94 % 15 lf 1019,0 hPa 0,0 l/m 0,00 h 0,00 h 0 W/m 14,0 km/h (3 Bft) 94,87 %
02.11.2016 21:00 6,1 C 5,7 C 4,0 C 95 % 15 lf 1019,3 hPa 0,0 l/m 0,00 h 0,03 h 0 W/m 13,1 km/h (3 Bft) 97,22 %
02.11.2016 22:00 5,7 C 5,1 C 3,4 C 95 % 15 lf 1019,5 hPa 0,0 l/m 0,00 h 0,03 h 0 W/m 9,2 km/h (2 Bft) 96,59 %
02.11.2016 23:00 5,4 C 5,1 C 3,7 C 96 % 15 lf 1019,8 hPa 0,0 l/m 0,00 h 0,00 h 2 W/m 10,2 km/h (2 Bft) 95,66 %
03.11.2016 00:00 5,7 C 5,6 C 4,2 C 97 % 15 lf 1019,9 hPa 0,0 l/m 0,00 h 0,00 h 0 W/m 12,0 km/h (2 Bft) 95,06 %
03.11.2016 01:00 5,8 C 5,7 C 4,4 C 97 % 15 lf 1020,0 hPa 0,0 l/m 0,00 h 0,00 h 0 W/m 12,4 km/h (3 Bft) 96,37 %
03.11.2016 02:00 5,8 C 5,9 C 4,5 C 97 % 15 lf 1020,1 hPa 0,0 l/m 0,00 h 0,00 h 0 W/m 13,1 km/h (3 Bft) 96,87 %
03.11.2016 03:00 6,1 C 6,2 C 5,0 C 98 % 15 lf 1020,2 hPa 0,0 l/m 0,00 h 0,00 h 0 W/m 11,7 km/h (2 Bft) 96,44 %
03.11.2016 04:00 6,2 C 6,1 C 5,0 C 98 % 5 lf 1020,3 hPa 0,2 l/m 0,00 h 0,00 h 0 W/m 13,2 km/h (3 Bft) 94,81 %
03.11.2016 05:00 5,9 C 6,1 C 4,7 C 98 % 1 lf 1020,5 hPa 0,0 l/m 0,00 h 0,00 h 0 W/m 12,2 km/h (2 Bft) 97,72 %
03.11.2016 06:00 5,7 C 5,9 C 4,5 C 98 % 1 lf 1020,4 hPa 0,0 l/m 0,00 h 0,00 h 0 W/m 12,5 km/h (3 Bft) 96,46 %
03.11.2016 07:00 5,8 C 6,1 C 5,0 C 98 % 1 lf 1020,9 hPa 0,0 l/m 0,00 h 0,00 h 9 W/m 10,4 km/h (2 Bft) 96,79 %
03.11.2016 08:00 6,1 C 6,6 C 5,5 C 98 % 0 lf 1021,4 hPa 0,0 l/m 0,00 h 0,00 h 28 W/m 10,8 km/h (2 Bft) 95,30 %
03.11.2016 09:00 6,3 C 7,3 C 6,4 C 98 % 0 lf 1021,6 hPa 0,0 l/m 0,00 h 0,00 h 68 W/m 10,2 km/h (2 Bft) 95,23 %
03.11.2016 10:00 6,8 C 8,8 C 7,8 C 98 % 0 lf 1021,7 hPa 0,0 l/m 0,10 h 0,00 h 134 W/m 11,0 km/h (2 Bft) 97,72 %
03.11.2016 11:00 7,5 C 8,9 C 8,2 C 98 % 0 lf 1021,7 hPa 0,0 l/m 0,00 h 0,00 h 118 W/m 11,4 km/h (2 Bft) 96,44 %
03.11.2016 12:00 8,2 C 10,9 C 9,1 C 95 % 0 lf 1021,3 hPa 0,0 l/m 0,27 h 0,00 h 179 W/m 11,4 km/h (2 Bft) 93,77 %
03.11.2016 13:00 9,4 C 12,7 C 9,8 C 90 % 0 lf 1021,0 hPa 0,0 l/m 0,63 h 0,00 h 205 W/m 13,2 km/h (3 Bft) 98,22 %
03.11.2016 14:00 9,9 C 11,5 C 9,7 C 86 % 0 lf 1020,7 hPa 0,0 l/m 0,40 h 0,00 h 148 W/m 11,8 km/h (2 Bft) 96,44 %
03.11.2016 15:00 9,7 C 10,4 C 8,7 C 87 % 0 lf 1020,4 hPa 0,0 l/m 0,20 h 0,00 h 88 W/m 11,3 km/h (2 Bft) 93,88 %
03.11.2016 16:00 9,2 C 9,1 C 7,4 C 88 % 0 lf 1020,1 hPa 0,0 l/m 0,77 h 0,00 h 41 W/m 8,3 km/h (2 Bft) 97,37 %
03.11.2016 17:00 8,5 C 7,5 C 5,9 C 88 % 0 lf 1019,8 hPa 0,0 l/m 0,00 h 0,00 h 4 W/m 3,0 km/h (1 Bft) 96,65 %
03.11.2016 18:00 8,0 C 7,9 C 6,1 C 90 % 0 lf 1019,7 hPa 0,0 l/m 0,00 h 0,00 h 0 W/m 5,1 km/h (1 Bft) 95,52 %
03.11.2016 19:00 8,0 C 7,9 C 6,4 C 93 % 0 lf 1019,5 hPa 0,0 l/m 0,00 h 0,00 h 0 W/m 6,0 km/h (2 Bft) 95,59 %
03.11.2016 20:00 7,6 C 7,0 C 5,0 C 93 % 0 lf 1019,3 hPa 0,0 l/m 0,00 h 0,00 h 0 W/m 6,0 km/h (2 Bft) 96,02 %
03.11.2016 21:00 7,1 C 6,9 C 5,2 C 93 % 0 lf 1019,3 hPa 0,0 l/m 0,00 h 0,00 h 0 W/m 8,1 km/h (2 Bft) 95,52 %
03.11.2016 22:00 6,8 C 6,8 C 5,1 C 93 % 0 lf 1018,9 hPa 0,0 l/m 0,00 h 0,07 h 0 W/m 10,0 km/h (2 Bft) 98,93 %
03.11.2016 23:00 6,5 C 6,0 C 4,3 C 93 % 0 lf 1018,3 hPa 0,0 l/m 0,00 h 0,00 h 0 W/m 8,3 km/h (2 Bft) 93,74 %
04.11.2016 00:00 6,1 C 5,9 C 4,3 C 94 % 0 lf 1018,0 hPa 0,0 l/m 0,00 h 0,00 h 0 W/m 9,3 km/h (2 Bft) 96,62 %
04.11.2016 01:00 5,9 C 6,0 C 4,4 C 94 % 0 lf 1017,6 hPa 0,0 l/m 0,00 h 0,00 h 0 W/m 8,6 km/h (2 Bft) 97,55 %
04.11.2016 02:00 5,9 C 6,1 C 4,4 C 94 % 0 lf 1017,1 hPa 0,0 l/m 0,00 h 0,00 h 0 W/m 7,9 km/h (2 Bft) 95,23 %
04.11.2016 03:00 5,8 C 6,0 C 4,4 C 94 % 0 lf 1016,6 hPa 0,0 l/m 0,00 h 0,00 h 0 W/m 8,7 km/h (2 Bft) 96,24 %
04.11.2016 04:00 5,6 C 5,6 C 4,4 C 94 % 0 lf 1016,1 hPa 0,0 l/m 0,00 h 0,00 h 0 W/m 9,8 km/h (2 Bft) 95,59 %
04.11.2016 05:00 5,5 C 5,9 C 4,4 C 94 % 0 lf 1015,4 hPa 0,0 l/m 0,00 h 0,00 h 0 W/m 11,4 km/h (2 Bft) 96,78 %
04.11.2016 06:00 5,6 C 6,1 C 4,4 C 93 % 0 lf 1015,0 hPa 0,0 l/m 0,00 h 0,00 h 0 W/m 9,5 km/h (2 Bft) 96,39 %
04.11.2016 07:00 5,9 C 5,8 C 4,4 C 92 % 11 lf 1014,8 hPa 0,2 l/m 0,00 h 0,77 h 7 W/m 11,0 km/h (2 Bft) 96,23 %
04.11.2016 08:00 6,1 C 5,9 C 4,4 C 92 % 4 lf 1014,0 hPa 0,0 l/m 0,00 h 0,43 h 15 W/m 18,9 km/h (3 Bft) 94,15 %
04.11.2016 09:00 6,5 C 7,3 C 5,4 C 89 % 0 lf 1013,4 hPa 0,0 l/m 0,13 h 0,00 h 78 W/m 16,0 km/h (3 Bft) 96,67 %
04.11.2016 10:00 7,5 C 9,1 C 8,0 C 87 % 0 lf 1013,1 hPa 0,0 l/m 0,23 h 0,00 h 149 W/m 13,0 km/h (3 Bft) 96,09 %
04.11.2016 11:00 8,7 C 11,6 C 9,3 C 83 % 0 lf 1012,8 hPa 0,0 l/m 0,90 h 0,00 h 288 W/m 17,4 km/h (3 Bft) 96,94 %
04.11.2016 12:00 9,8 C 11,9 C 10,1 C 78 % 0 lf 1011,9 hPa 0,0 l/m 0,97 h 0,00 h 262 W/m 16,4 km/h (3 Bft) 94,71 %
04.11.2016 13:00 10,6 C 13,3 C 10,5 C 75 % 0 lf 1011,1 hPa 0,0 l/m 1,00 h 0,00 h 267 W/m 13,7 km/h (3 Bft) 96,16 %
04.11.2016 14:00 10,8 C 12,5 C 10,1 C 74 % 0 lf 1010,2 hPa 0,0 l/m 0,73 h 0,00 h 163 W/m 15,9 km/h (3 Bft) 95,80 %
04.11.2016 15:00 10,3 C 10,7 C 9,4 C 77 % 0 lf 1009,5 hPa 0,0 l/m 0,13 h 0,00 h 83 W/m 15,7 km/h (3 Bft) 96,27 %
04.11.2016 16:00 9,7 C 9,4 C 7,9 C 79 % 0 lf 1009,1 hPa 0,0 l/m 0,00 h 0,00 h 26 W/m 11,7 km/h (2 Bft) 96,83 %
04.11.2016 17:00 8,7 C 8,2 C 6,7 C 83 % 0 lf 1008,6 hPa 0,0 l/m 0,00 h 0,00 h 4 W/m 9,2 km/h (2 Bft) 94,89 %
04.11.2016 18:00 8,0 C 7,8 C 6,4 C 87 % 0 lf 1008,1 hPa 0,0 l/m 0,00 h 0,00 h 0 W/m 8,5 km/h (2 Bft) 96,22 %
04.11.2016 19:00 7,7 C 7,8 C 6,1 C 87 % 0 lf 1007,6 hPa 0,0 l/m 0,00 h 0,00 h 0 W/m 7,7 km/h (2 Bft) 94,65 %
04.11.2016 20:00 7,8 C 8,2 C 6,7 C 84 % 0 lf 1007,1 hPa 0,0 l/m 0,00 h 0,00 h 0 W/m 13,4 km/h (3 Bft) 96,24 %
04.11.2016 21:00 7,9 C 7,8 C 6,2 C 84 % 0 lf 1006,5 hPa 0,0 l/m 0,00 h 0,20 h 0 W/m 11,7 km/h (2 Bft) 97,42 %
04.11.2016 22:00 7,4 C 7,2 C 5,6 C 87 % 0 lf 1005,8 hPa 0,0 l/m 0,00 h 0,23 h 0 W/m 7,3 km/h (2 Bft) 95,10 %
04.11.2016 23:00 7,1 C 6,8 C 5,4 C 89 % 0 lf 1005,2 hPa 0,0 l/m 0,00 h 0,73 h 0 W/m 11,2 km/h (2 Bft) 94,83 %
05.11.2016 00:00 6,8 C 6,2 C 5,0 C 92 % 0 lf 1004,3 hPa 0,0 l/m 0,00 h 0,22 h 0 W/m 11,5 km/h (2 Bft) 95,87 %
05.11.2016 01:00 6,6 C 6,7 C 5,0 C 93 % 0 lf 1003,5 hPa 0,0 l/m 0,00 h 0,43 h 0 W/m 10,0 km/h (2 Bft) 98,72 %
05.11.2016 02:00 6,7 C 6,8 C 5,2 C 94 % 1 lf 1002,6 hPa 0,2 l/m 0,00 h 0,30 h 0 W/m 12,3 km/h (3 Bft) 95,09 %
05.11.2016 03:00 6,8 C 6,4 C 5,4 C 95 % 15 lf 1001,9 hPa 1,0 l/m 0,00 h 1,00 h 0 W/m 9,4 km/h (2 Bft) 94,83 %
05.11.2016 04:00 6,8 C 6,7 C 5,6 C 96 % 15 lf 1001,5 hPa 0,4 l/m 0,00 h 0,50 h 0 W/m 12,3 km/h (3 Bft) 97,70 %
05.11.2016 05:00 7,0 C 6,7 C 5,6 C 96 % 15 lf 1001,1 hPa 0,0 l/m 0,00 h 0,50 h 0 W/m 16,4 km/h (3 Bft) 96,10 %
05.11.2016 06:00 7,1 C 6,7 C 5,9 C 96 % 15 lf 1000,6 hPa 0,0 l/m 0,00 h 0,00 h 0 W/m 17,7 km/h (3 Bft) 96,59 %
05.11.2016 07:00 7,2 C 7,0 C 6,1 C 96 % 11 lf 1000,4 hPa 0,0 l/m 0,00 h 0,00 h 5 W/m 11,1 km/h (2 Bft) 96,36 %
05.11.2016 08:00 7,3 C 7,2 C 6,2 C 97 % 1 lf 1000,5 hPa 0,0 l/m 0,00 h 0,00 h 14 W/m 13,6 km/h (3 Bft) 94,30 %
05.11.2016 09:00 7,5 C 7,7 C 6,8 C 97 % 0 lf 1000,4 hPa 0,0 l/m 0,00 h 0,00 h 58 W/m 16,9 km/h (3 Bft) 97,29 %
05.11.2016 10:00 8,0 C 8,9 C 7,7 C 96 % 0 lf 1000,3 hPa 0,0 l/m 0,03 h 0,00 h 113 W/m 16,4 km/h (3 Bft) 98,08 %
05.11.2016 11:00 8,6 C 10,2 C 8,3 C 95 % 0 lf 1000,2 hPa 0,0 l/m 0,00 h 0,00 h 125 W/m 14,4 km/h (3 Bft) 91,90 %
05.11.2016 12:00 9,1 C 11,2 C 8,9 C 91 % 0 lf 999,8 hPa 0,0 l/m 0,23 h 0,00 h 172 W/m 14,9 km/h (3 Bft) 97,68 %
05.11.2016 13:00 9,4 C 10,8 C 9,1 C 89 % 0 lf 999,7 hPa 0,0 l/m 0,17 h 0,00 h 128 W/m 15,7 km/h (3 Bft) 97,23 %
05.11.2016 14:00 10,0 C 14,5 C 9,5 C 85 % 0 lf 999,3 hPa 0,0 l/m 0,60 h 0,00 h 198 W/m 17,1 km/h (3 Bft) 94,15 %
05.11.2016 15:00 9,7 C 10,2 C 7,6 C 80 % 0 lf 999,1 hPa 0,0 l/m 0,20 h 0,00 h 73 W/m 12,6 km/h (3 Bft) 95,80 %
05.11.2016 16:00 8,9 C 8,8 C 7,1 C 79 % 0 lf 999,0 hPa 0,0 l/m 0,13 h 0,00 h 28 W/m 14,9 km/h (3 Bft) 98,49 %
05.11.2016 17:00 8,4 C 8,3 C 7,0 C 81 % 0 lf 999,2 hPa 0,0 l/m 0,00 h 0,00 h 0 W/m 11,2 km/h (2 Bft) 94,17 %
05.11.2016 18:00 8,2 C 8,1 C 6,7 C 84 % 0 lf 999,2 hPa 0,0 l/m 0,00 h 0,00 h 0 W/m 11,7 km/h (2 Bft) 97,16 %
05.11.2016 19:00 7,7 C 7,5 C 6,1 C 86 % 0 lf 999,1 hPa 0,0 l/m 0,00 h 0,00 h 0 W/m 13,5 km/h (3 Bft) 95,18 %
05.11.2016 20:00 7,4 C 7,3 C 6,0 C 85 % 1 lf 999,1 hPa 0,0 l/m 0,00 h 0,17 h 0 W/m 18,3 km/h (3 Bft) 95,14 %
05.11.2016 21:00 7,1 C 6,7 C 5,2 C 87 % 2 lf 999,1 hPa 0,0 l/m 0,00 h 0,13 h 0 W/m 20,7 km/h (4 Bft) 96,76 %
05.11.2016 22:00 6,6 C 6,4 C 5,0 C 89 % 0 lf 999,2 hPa 0,0 l/m 0,00 h 0,00 h 0 W/m 20,0 km/h (4 Bft) 96,87 %
05.11.2016 23:00 6,1 C 5,9 C 4,5 C 92 % 0 lf 999,3 hPa 0,0 l/m 0,00 h 0,00 h 0 W/m 16,9 km/h (3 Bft) 92,64 %
06.11.2016 00:00 6,0 C 5,3 C 4,0 C 94 % 15 lf 999,3 hPa 0,2 l/m 0,00 h 0,12 h 0 W/m 12,5 km/h (3 Bft) 97,82 %
06.11.2016 01:00 5,3 C 4,6 C 3,1 C 94 % 15 lf 999,3 hPa 0,0 l/m 0,00 h 0,03 h 4 W/m 12,7 km/h (3 Bft) 95,90 %
06.11.2016 02:00 4,9 C 4,4 C 2,9 C 95 % 15 lf 999,3 hPa 0,0 l/m 0,00 h 0,10 h 0 W/m 16,1 km/h (3 Bft) 96,30 %
06.11.2016 03:00 4,8 C 4,4 C 2,8 C 96 % 15 lf 999,0 hPa 0,0 l/m 0,00 h 0,20 h 0 W/m 18,6 km/h (3 Bft) 94,80 %
06.11.2016 04:00 4,5 C 4,4 C 2,7 C 96 % 14 lf 998,8 hPa 0,0 l/m 0,00 h 0,40 h 0 W/m 20,3 km/h (4 Bft) 95,96 %
06.11.2016 05:00 4,3 C 4,3 C 2,6 C 96 % 2 lf 998,8 hPa 0,0 l/m 0,00 h 0,00 h 0 W/m 20,9 km/h (4 Bft) 96,38 %
06.11.2016 06:00 4,2 C 4,1 C 2,3 C 95 % 1 lf 998,6 hPa 0,0 l/m 0,00 h 0,10 h 0 W/m 23,3 km/h (4 Bft) 95,71 %
06.11.2016 07:00 4,3 C 4,4 C 2,9 C 95 % 0 lf 998,9 hPa 0,0 l/m 0,13 h 0,00 h 15 W/m 20,6 km/h (4 Bft) 97,85 %
06.11.2016 08:00 4,6 C 5,3 C 3,5 C 95 % 1 lf 999,0 hPa 0,0 l/m 0,77 h 0,23 h 66 W/m 23,6 km/h (4 Bft) 93,52 %
06.11.2016 09:00 5,4 C 8,3 C 4,8 C 94 % 0 lf 998,8 hPa 0,0 l/m 0,93 h 0,03 h 218 W/m 28,8 km/h (5 Bft) 97,02 %
06.11.2016 10:00 6,4 C 11,9 C 5,3 C 90 % 0 lf 999,0 hPa 0,0 l/m 0,97 h 0,00 h 283 W/m 32,0 km/h (5 Bft) 96,94 %
06.11.2016 11:00 7,1 C 10,4 C 6,8 C 87 % 0 lf 998,9 hPa 0,0 l/m 0,67 h 0,00 h 258 W/m 32,4 km/h (5 Bft) 93,81 %
06.11.2016 12:00 7,5 C 9,7 C 7,4 C 86 % 0 lf 998,5 hPa 0,0 l/m 0,43 h 0,00 h 224 W/m 31,3 km/h (5 Bft) 96,57 %
06.11.2016 13:00 7,7 C 8,7 C 7,4 C 84 % 0 lf 998,3 hPa 0,0 l/m 0,20 h 0,00 h 121 W/m 29,6 km/h (5 Bft) 97,67 %
06.11.2016 14:00 7,3 C 7,4 C 6,1 C 84 % 0 lf 998,1 hPa 0,2 l/m 0,00 h 0,00 h 24 W/m 25,1 km/h (4 Bft) 93,74 %
06.11.2016 15:00 7,0 C 6,7 C 5,4 C 86 % 9 lf 998,2 hPa 0,0 l/m 0,00 h 0,40 h 24 W/m 22,7 km/h (4 Bft) 96,08 %
06.11.2016 16:00 6,3 C 5,7 C 4,4 C 90 % 15 lf 998,4 hPa 0,2 l/m 0,00 h 0,83 h 8 W/m 19,6 km/h (3 Bft) 97,58 %
06.11.2016 17:00 6,0 C 5,6 C 4,4 C 92 % 15 lf 998,8 hPa 0,8 l/m 0,00 h 1,00 h 0 W/m 18,7 km/h (3 Bft) 95,59 %
06.11.2016 18:00 5,7 C 5,2 C 4,1 C 94 % 15 lf 999,2 hPa 0,6 l/m 0,00 h 0,67 h 0 W/m 21,6 km/h (4 Bft) 95,44 %
06.11.2016 19:00 5,5 C 5,2 C 3,9 C 95 % 15 lf 999,4 hPa 0,0 l/m 0,00 h 0,00 h 0 W/m 22,1 km/h (4 Bft) 96,87 %
06.11.2016 20:00 5,5 C 5,5 C 4,3 C 94 % 15 lf 999,6 hPa 0,0 l/m 0,00 h 0,00 h 0 W/m 22,0 km/h (4 Bft) 94,39 %
06.11.2016 21:00 5,5 C 5,5 C 4,3 C 94 % 7 lf 999,9 hPa 0,0 l/m 0,00 h 0,07 h 0 W/m 20,2 km/h (4 Bft) 98,57 %
06.11.2016 22:00 5,3 C 4,9 C 3,6 C 93 % 0 lf 1000,0 hPa 0,0 l/m 0,00 h 0,00 h 0 W/m 12,7 km/h (3 Bft) 95,80 %
06.11.2016 23:00 5,3 C 5,0 C 3,9 C 93 % 0 lf 1000,4 hPa 0,0 l/m 0,00 h 0,00 h 0 W/m 12,3 km/h (3 Bft) 93,24 %
Min-Datum _ 06.11.16 06.11.16 06.11.16 31.10.16 31.10.16 06.11.16 - - - - 31.10.16 01.11.16
_ Min-Zeit 06:20 04:56 04:50 14:12 10:24 14:38 - - - - 00:00 00:02
Minimum _ 4,2 C 3,9 C 2,2 C 71 % 0 lf 998,0 hPa - - - - 0,0 km/h (0 Bft) 14,29 %
Max-Datum _ 31.10.16 31.10.16 01.11.16 31.10.16 31.10.16 31.10.16 05.11.16 31.10.16 01.11.16 31.10.16 06.11.16 31.10.16
_ Max-Zeit 14:50 13:54 12:54 09:42 00:00 00:00 03:06 07:40 07:30 12:24 12:50 00:06
Maximum _ 16,1 C 23,3 C 13,9 C 99 % 15 lf 1029,3 hPa 1,0 l/m 0,03 h 0,03 h 626 W/m 46,0 km/h
W-SW (6 Bft)
100,00 %
Durchschnitt _ 7,8 C 8,4 C 6,3 C 91 % 6 lf 1013,9 hPa #4,8 l/m #32:26 h #12:12 h 133 W/m 12,4 km/h (3 Bft) 96,08 %
© 2016 W. Hausmann